createdAt,value
2022-10-06T00:00:23.920Z,96327.41
2022-10-06T00:03:09.009Z,96328.22
2022-10-06T00:05:59.358Z,96330.47
2022-10-06T00:08:45.493Z,96334.00
2022-10-06T00:11:30.941Z,96341.03
2022-10-06T00:14:15.809Z,96339.44
2022-10-06T00:17:00.825Z,96340.56
2022-10-06T00:19:45.782Z,96347.13
2022-10-06T00:22:37.598Z,96342.78
2022-10-06T00:25:24.892Z,96345.53
2022-10-06T00:28:10.173Z,96346.63
2022-10-06T00:30:55.539Z,96348.56
2022-10-06T00:33:41.116Z,96352.38
2022-10-06T00:36:26.227Z,96340.38
2022-10-06T00:39:11.164Z,96342.31
2022-10-06T00:41:55.969Z,96345.03
2022-10-06T00:44:41.790Z,96349.66
2022-10-06T00:47:30.787Z,96344.22
2022-10-06T00:50:16.459Z,96354.00
2022-10-06T00:53:02.718Z,96350.50
2022-10-06T00:55:47.622Z,96348.88
2022-10-06T00:58:32.839Z,96352.38
2022-10-06T01:01:18.026Z,96358.97
2022-10-06T01:04:09.270Z,96361.69
2022-10-06T01:06:57.691Z,96354.31
2022-10-06T01:09:43.090Z,96357.03
2022-10-06T01:12:29.790Z,96361.09
2022-10-06T01:15:16.427Z,96361.88
2022-10-06T01:18:05.893Z,96365.41
2022-10-06T01:20:59.890Z,96359.63
2022-10-06T01:23:45.181Z,96363.19
2022-10-06T01:26:33.728Z,96355.31
2022-10-06T01:29:20.063Z,96355.31
2022-10-06T01:32:05.587Z,96357.22
2022-10-06T01:34:50.918Z,96359.94
2022-10-06T01:37:36.511Z,96365.22
2022-10-06T01:40:22.703Z,96360.88
2022-10-06T01:43:07.982Z,96361.19
2022-10-06T01:45:57.275Z,96363.44
2022-10-06T01:48:42.383Z,96361.00
2022-10-06T01:51:28.175Z,96364.03
2022-10-06T01:54:14.696Z,96369.00
2022-10-06T01:56:59.893Z,96368.00
2022-10-06T01:59:45.756Z,96372.66
2022-10-06T02:02:31.412Z,96376.00
2022-10-06T02:05:17.102Z,96371.97
2022-10-06T02:08:05.883Z,96375.00
2022-10-06T02:10:53.097Z,96370.16
2022-10-06T02:13:41.854Z,96380.28
2022-10-06T02:16:30.305Z,96387.97
2022-10-06T02:19:15.600Z,96390.19
2022-10-06T02:22:00.447Z,96394.31
2022-10-06T02:24:45.814Z,96394.63
2022-10-06T02:27:31.227Z,96398.78
2022-10-06T02:30:17.155Z,96392.53
2022-10-06T02:33:04.277Z,96399.38
2022-10-06T02:35:54.775Z,96399.69
2022-10-06T02:38:40.999Z,96402.72
2022-10-06T02:41:27.243Z,96406.56
2022-10-06T02:44:12.571Z,96400.31
2022-10-06T02:47:00.252Z,96414.47
2022-10-06T02:49:45.995Z,96407.50
2022-10-06T02:52:36.214Z,96418.38
2022-10-06T02:55:22.577Z,96419.50
2022-10-06T02:58:07.430Z,96417.91
2022-10-06T03:00:52.825Z,96423.66
2022-10-06T03:03:38.057Z,96423.97
2022-10-06T03:06:26.030Z,96425.06
2022-10-06T03:09:21.311Z,96426.16
2022-10-06T03:12:06.907Z,96432.75
2022-10-06T03:14:56.272Z,96429.19
2022-10-06T03:17:44.639Z,96431.13
2022-10-06T03:20:31.268Z,96424.88
2022-10-06T03:23:16.525Z,96435.47
2022-10-06T03:26:01.996Z,96427.59
2022-10-06T03:28:48.484Z,96438.19
2022-10-06T03:31:33.869Z,96442.00
2022-10-06T03:34:20.262Z,96449.38
2022-10-06T03:37:05.640Z,96438.78
2022-10-06T03:39:50.668Z,96442.31
2022-10-06T03:42:36.502Z,96446.13
2022-10-06T03:45:22.986Z,96459.75
2022-10-06T03:48:08.356Z,96449.16
2022-10-06T03:50:55.560Z,96462.78
2022-10-06T03:53:44.541Z,96468.88
2022-10-06T03:56:35.126Z,96460.69
2022-10-06T03:59:20.888Z,96465.31
2022-10-06T04:02:07.127Z,96464.81
2022-10-06T04:04:55.338Z,96462.41
2022-10-06T04:07:42.318Z,96470.06
2022-10-06T04:10:27.427Z,96470.06
2022-10-06T04:13:12.660Z,96481.53
2022-10-06T04:15:58.093Z,96487.28
2022-10-06T04:18:45.151Z,96485.19
2022-10-06T04:21:32.463Z,96484.16
2022-10-06T04:24:17.828Z,96488.31
2022-10-06T04:27:05.151Z,96484.56
2022-10-06T04:29:50.626Z,96495.75
2022-10-06T04:32:35.684Z,96491.72
2022-10-06T04:35:21.632Z,96496.94
2022-10-06T04:38:07.007Z,96499.19
2022-10-06T04:40:52.247Z,96498.69
2022-10-06T04:43:37.856Z,96500.06
2022-10-06T04:46:41.991Z,96501.19
2022-10-06T04:49:28.495Z,96503.41
2022-10-06T04:52:14.709Z,96497.47
2022-10-06T04:55:00.549Z,96504.00
2022-10-06T04:57:46.425Z,96500.78
2022-10-06T05:00:31.870Z,96507.31
2022-10-06T05:03:17.378Z,96511.47
2022-10-06T05:06:18.253Z,96516.38
2022-10-06T05:09:09.200Z,96523.75
2022-10-06T05:11:55.563Z,96527.56
2022-10-06T05:14:40.891Z,96523.53
2022-10-06T05:17:26.544Z,96528.97
2022-10-06T05:20:12.328Z,96521.91
2022-10-06T05:22:57.710Z,96536.31
2022-10-06T05:25:50.823Z,96528.75
2022-10-06T05:28:36.634Z,96530.38
2022-10-06T05:31:24.969Z,96533.41
2022-10-06T05:34:10.072Z,96539.94
2022-10-06T05:36:55.300Z,96536.41
2022-10-06T05:39:40.613Z,96538.03
2022-10-06T05:42:29.506Z,96538.03
2022-10-06T05:45:15.279Z,96543.47
2022-10-06T05:48:01.048Z,96553.25
2022-10-06T05:50:46.312Z,96557.59
2022-10-06T05:53:33.691Z,96566.25
2022-10-06T05:56:24.792Z,96561.94
2022-10-06T05:59:09.980Z,96569.50
2022-10-06T06:01:55.630Z,96577.06
2022-10-06T06:04:49.593Z,96582.72
2022-10-06T06:07:35.335Z,96582.94
2022-10-06T06:10:20.461Z,96580.13
2022-10-06T06:13:05.455Z,96586.88
2022-10-06T06:15:59.625Z,96590.34
2022-10-06T06:18:45.716Z,96590.25
2022-10-06T06:21:32.801Z,96590.94
2022-10-06T06:24:17.782Z,96598.72
2022-10-06T06:27:02.658Z,96610.03
2022-10-06T06:29:47.965Z,96614.03
2022-10-06T06:32:33.604Z,96612.00
2022-10-06T06:35:19.077Z,96621.38
2022-10-06T06:38:03.947Z,96624.22
2022-10-06T06:40:49.002Z,96627.34
2022-10-06T06:43:34.680Z,96630.19
2022-10-06T06:46:42.748Z,96630.28
2022-10-06T06:49:31.545Z,96629.56
2022-10-06T06:52:21.433Z,96633.19
2022-10-06T06:55:06.676Z,96639.88
2022-10-06T06:57:52.167Z,96642.47
2022-10-06T07:00:37.674Z,96638.22
2022-10-06T07:03:55.598Z,96645.69
2022-10-06T07:06:30.605Z,96648.50
2022-10-06T07:09:17.449Z,96656.78
2022-10-06T07:12:03.575Z,96668.31
2022-10-06T07:14:48.940Z,96667.25
2022-10-06T07:17:34.186Z,96661.28
2022-10-06T07:20:19.617Z,96670.53
2022-10-06T07:23:05.250Z,96671.91
2022-10-06T07:25:51.230Z,96665.88
2022-10-06T07:28:36.395Z,96674.31
2022-10-06T07:31:21.845Z,96675.66
2022-10-06T07:34:06.807Z,96684.91
2022-10-06T07:36:52.044Z,96689.50
2022-10-06T07:39:37.157Z,96681.53
2022-10-06T07:42:22.514Z,96688.84
2022-10-06T07:45:08.234Z,96689.06
2022-10-06T07:48:00.249Z,96684.09
2022-10-06T07:50:50.441Z,96688.66
2022-10-06T07:53:39.803Z,96689.63
2022-10-06T07:56:36.422Z,96697.72
2022-10-06T07:59:22.161Z,96692.09
2022-10-06T08:02:07.229Z,96702.75
2022-10-06T08:04:52.920Z,96701.34
2022-10-06T08:07:38.143Z,96706.16
2022-10-06T08:10:23.263Z,96708.28
2022-10-06T08:13:09.450Z,96715.03
2022-10-06T08:15:54.641Z,96716.97
2022-10-06T08:18:46.503Z,96726.31
2022-10-06T08:21:33.353Z,96722.41
2022-10-06T08:24:18.288Z,96716.09
2022-10-06T08:27:03.781Z,96725.13
2022-10-06T08:29:49.054Z,96719.47
2022-10-06T08:32:34.552Z,96728.16
2022-10-06T08:35:19.888Z,96723.34
2022-10-06T08:38:05.859Z,96736.69
2022-10-06T08:40:51.342Z,96734.25
2022-10-06T08:43:36.749Z,96740.03
2022-10-06T08:46:25.019Z,96732.09
2022-10-06T08:49:18.917Z,96728.03
2022-10-06T08:52:40.070Z,96730.59
2022-10-06T08:55:42.045Z,96727.00
2022-10-06T08:58:46.002Z,96726.59
2022-10-06T09:01:46.757Z,96726.91
2022-10-06T09:04:32.542Z,96735.41
2022-10-06T09:07:31.579Z,96743.16
2022-10-06T09:10:41.196Z,96731.16
2022-10-06T09:13:35.963Z,96733.06
2022-10-06T09:16:30.701Z,96736.09
2022-10-06T09:19:24.832Z,96722.97
2022-10-06T09:22:20.381Z,96730.47
2022-10-06T09:25:26.206Z,96726.91
2022-10-06T09:28:15.429Z,96733.28
2022-10-06T09:31:03.915Z,96721.19
2022-10-06T09:33:52.144Z,96727.09
2022-10-06T09:37:00.905Z,96724.88
2022-10-06T09:39:52.098Z,96733.66
2022-10-06T09:42:37.151Z,96726.19
2022-10-06T09:45:26.274Z,96732.19
2022-10-06T09:48:22.200Z,96726.00
2022-10-06T09:51:15.193Z,96722.09
2022-10-06T09:54:18.352Z,96734.84
2022-10-06T09:57:28.753Z,96734.28
2022-10-06T10:00:35.195Z,96731.34
2022-10-06T10:03:21.580Z,96725.28
2022-10-06T10:06:07.013Z,96730.56
2022-10-06T10:08:52.107Z,96722.91
2022-10-06T10:11:37.446Z,96717.19
2022-10-06T10:14:22.715Z,96719.72
2022-10-06T10:17:16.809Z,96715.47
2022-10-06T10:20:06.435Z,96710.53
2022-10-06T10:22:52.931Z,96721.81
2022-10-06T10:25:58.434Z,96721.13
2022-10-06T10:29:05.343Z,96719.59
2022-10-06T10:32:17.031Z,96721.69
2022-10-06T10:35:15.237Z,96730.53
2022-10-06T10:38:13.724Z,96728.00
2022-10-06T10:41:07.360Z,96731.34
2022-10-06T10:44:29.265Z,96735.38
2022-10-06T10:47:37.692Z,96729.84
2022-10-06T10:50:28.914Z,96727.69
2022-10-06T10:56:25.773Z,96735.94
2022-10-06T10:59:30.451Z,96725.81
2022-10-06T11:02:20.219Z,96727.09
2022-10-06T11:05:12.669Z,96729.50
2022-10-06T11:08:30.431Z,96727.09
2022-10-06T11:11:43.156Z,96721.91
2022-10-06T11:14:50.348Z,96720.88
2022-10-06T11:17:41.772Z,96725.34
2022-10-06T11:20:39.052Z,96721.66
2022-10-06T11:23:31.140Z,96730.81
2022-10-06T11:26:32.613Z,96721.16
2022-10-06T11:29:36.441Z,96711.03
2022-10-06T11:32:30.428Z,96721.81
2022-10-06T11:35:25.019Z,96715.63
2022-10-06T11:38:15.686Z,96718.03
2022-10-06T11:41:10.300Z,96711.72
2022-10-06T11:44:06.498Z,96707.25
2022-10-06T11:46:56.279Z,96710.25
2022-10-06T11:49:44.277Z,96701.84
2022-10-06T11:52:29.097Z,96698.66
2022-10-06T11:55:18.138Z,96695.19
2022-10-06T11:58:29.915Z,96698.16
2022-10-06T12:01:34.577Z,96699.16
2022-10-06T12:04:24.377Z,96698.69
2022-10-06T12:07:10.351Z,96695.44
2022-10-06T12:10:27.427Z,96691.69
2022-10-06T12:20:18.172Z,96676.78
2022-10-06T12:23:09.023Z,96680.47
2022-10-06T12:25:54.440Z,96676.53
2022-10-06T12:28:47.510Z,96669.84
2022-10-06T12:31:52.310Z,96678.13
2022-10-06T12:34:40.340Z,96673.16
2022-10-06T12:37:34.019Z,96671.81
2022-10-06T12:40:40.796Z,96671.63
2022-10-06T12:43:28.474Z,96669.31
2022-10-06T12:46:22.687Z,96669.59
2022-10-06T12:49:42.889Z,96665.59
2022-10-06T12:52:36.778Z,96657.91
2022-10-06T12:55:38.564Z,96667.53
2022-10-06T12:58:28.804Z,96662.19
2022-10-06T13:01:13.819Z,96655.78
2022-10-06T13:03:59.086Z,96652.84
2022-10-06T13:06:49.938Z,96657.38
2022-10-06T13:09:35.027Z,96654.03
2022-10-06T13:12:32.611Z,96657.84
2022-10-06T13:15:27.423Z,96648.56
2022-10-06T13:18:17.590Z,96643.19
2022-10-06T13:31:15.093Z,96638.50
2022-10-06T13:33:43.822Z,96635.38
2022-10-06T13:36:12.045Z,96636.09
2022-10-06T13:38:39.767Z,96636.78
2022-10-06T13:41:06.327Z,96647.25
2022-10-06T13:43:39.945Z,96646.66
2022-10-06T13:46:14.930Z,96640.47
2022-10-06T13:48:57.945Z,96640.94
2022-10-06T13:51:28.400Z,96640.00
2022-10-06T13:53:55.978Z,96628.78
2022-10-06T13:56:40.084Z,96638.44
2022-10-06T13:59:38.155Z,96640.41
2022-10-06T14:02:23.333Z,96641.63
2022-10-06T14:05:27.418Z,96639.56
2022-10-06T14:07:57.829Z,96631.66
2022-10-06T14:10:29.365Z,96632.81
2022-10-06T14:12:56.168Z,96637.09
2022-10-06T14:15:25.785Z,96636.53
2022-10-06T14:17:58.888Z,96640.81
2022-10-06T14:20:40.960Z,96631.28
2022-10-06T14:23:45.319Z,96639.41
2022-10-06T14:26:13.372Z,96640.91
2022-10-06T14:28:40.909Z,96636.19
2022-10-06T14:31:11.975Z,96630.88
2022-10-06T14:33:40.755Z,96637.19
2022-10-06T14:36:15.114Z,96631.56
2022-10-06T14:38:41.624Z,96637.09
2022-10-06T14:41:08.244Z,96630.44
2022-10-06T14:43:34.884Z,96625.34
2022-10-06T14:46:04.026Z,96631.66
2022-10-06T14:48:32.743Z,96633.63
2022-10-06T14:51:02.306Z,96629.34
2022-10-06T14:53:28.889Z,96627.38
2022-10-06T14:56:04.942Z,96630.06
2022-10-06T14:58:31.695Z,96623.56
2022-10-06T15:01:06.430Z,96623.91
2022-10-06T15:03:34.094Z,96627.75
2022-10-06T15:06:05.374Z,96626.84
2022-10-06T15:08:31.982Z,96611.34
2022-10-06T15:10:58.527Z,96617.56
2022-10-06T15:13:25.590Z,96616.78
2022-10-06T15:15:58.009Z,96621.44
2022-10-06T15:18:24.633Z,96624.53
2022-10-06T15:20:51.111Z,96618.19
2022-10-06T15:23:17.639Z,96619.38
2022-10-06T15:25:51.672Z,96621.66
2022-10-06T15:28:21.258Z,96616.84
2022-10-06T15:30:50.145Z,96614.00
2022-10-06T15:33:16.706Z,96615.53
2022-10-06T15:35:58.062Z,96614.72
2022-10-06T15:38:24.602Z,96622.13
2022-10-06T15:41:04.240Z,96614.88
2022-10-06T15:43:31.948Z,96614.66
2022-10-06T15:45:58.436Z,96621.59
2022-10-06T15:48:24.928Z,96610.38
2022-10-06T15:50:51.438Z,96620.75
2022-10-06T15:53:17.953Z,96622.50
2022-10-06T15:55:44.461Z,96616.00
2022-10-06T15:58:10.935Z,96621.66
2022-10-06T16:00:37.460Z,96611.25
2022-10-06T16:03:04.027Z,96613.44
2022-10-06T16:05:30.631Z,96618.72
2022-10-06T16:07:57.152Z,96620.94
2022-10-06T16:10:23.608Z,96624.59
2022-10-06T16:12:50.075Z,96617.38
2022-10-06T16:15:16.615Z,96619.88
2022-10-06T16:17:43.133Z,96613.00
2022-10-06T16:20:09.906Z,96616.84
2022-10-06T16:22:36.680Z,96626.13
2022-10-06T16:25:03.510Z,96619.59
2022-10-06T16:27:33.348Z,96612.38
2022-10-06T16:30:00.221Z,96614.09
2022-10-06T16:32:26.749Z,96615.81
2022-10-06T16:34:53.387Z,96626.25
2022-10-06T16:37:19.821Z,96624.38
2022-10-06T16:39:46.269Z,96633.56
2022-10-06T16:42:12.813Z,96631.25
2022-10-06T16:44:39.297Z,96632.50
2022-10-06T16:47:05.946Z,96629.03
2022-10-06T16:49:32.478Z,96631.06
2022-10-06T16:51:58.925Z,96638.59
2022-10-06T16:54:25.760Z,96646.09
2022-10-06T16:56:52.404Z,96637.16
2022-10-06T16:59:20.643Z,96646.28
2022-10-06T17:01:48.093Z,96635.69
2022-10-06T17:04:19.919Z,96643.22
2022-10-06T17:06:49.159Z,96646.00
2022-10-06T17:09:20.896Z,96644.09
2022-10-06T17:11:52.648Z,96644.97
2022-10-06T17:14:20.052Z,96645.84
2022-10-06T17:16:48.261Z,96637.69
2022-10-06T17:19:16.538Z,96643.69
2022-10-06T17:21:46.605Z,96653.59
2022-10-06T17:24:14.990Z,96651.34
2022-10-06T17:26:43.852Z,96654.16
2022-10-06T17:29:17.002Z,96655.47
2022-10-06T17:31:43.701Z,96655.66
2022-10-06T17:34:14.318Z,96655.38
2022-10-06T17:36:44.900Z,96661.38
2022-10-06T17:39:12.064Z,96661.03
2022-10-06T17:41:41.466Z,96663.81
2022-10-06T17:44:10.718Z,96659.63
2022-10-06T17:46:40.473Z,96659.34
2022-10-06T17:49:09.196Z,96665.31
2022-10-06T17:51:38.252Z,96664.22
2022-10-06T17:54:07.460Z,96670.19
2022-10-06T17:56:34.861Z,96669.56
2022-10-06T17:59:07.059Z,96663.75
2022-10-06T18:01:35.363Z,96668.63
2022-10-06T18:04:04.276Z,96665.56
2022-10-06T18:06:33.596Z,96655.88
2022-10-06T18:09:00.691Z,96662.66
2022-10-06T18:11:28.808Z,96666.72
2022-10-06T18:13:55.525Z,96662.47
2022-10-06T18:16:23.957Z,96658.28
2022-10-06T18:18:52.440Z,96661.66
2022-10-06T18:21:21.450Z,96657.94
2022-10-06T18:23:48.436Z,96662.47
2022-10-06T18:26:16.866Z,96667.78
2022-10-06T18:28:45.566Z,96665.19
2022-10-06T18:31:13.643Z,96659.88
2022-10-06T18:36:26.912Z,96657.75
2022-10-06T18:38:53.553Z,96659.53
2022-10-06T18:41:20.223Z,96656.13
2022-10-06T18:43:46.852Z,96663.69
2022-10-06T18:46:15.690Z,96666.59
2022-10-06T18:48:42.303Z,96665.91
2022-10-06T18:51:08.910Z,96664.63
2022-10-06T18:53:35.747Z,96662.81
2022-10-06T18:56:02.211Z,96660.25
2022-10-06T18:58:28.668Z,96665.22
2022-10-06T19:00:55.423Z,96672.44
2022-10-06T19:03:22.017Z,96665.69
2022-10-06T19:05:52.641Z,96667.44
2022-10-06T19:08:19.103Z,96659.38
2022-10-06T19:10:45.606Z,96667.09
2022-10-06T19:13:12.095Z,96666.09
2022-10-06T19:15:38.754Z,96668.69
2022-10-06T19:18:05.413Z,96668.50
2022-10-06T19:20:31.989Z,96667.47
2022-10-06T19:22:58.513Z,96669.22
2022-10-06T19:25:24.992Z,96665.53
2022-10-06T19:27:51.492Z,96669.97
2022-10-06T19:30:17.995Z,96673.34
2022-10-06T19:32:44.463Z,96666.09
2022-10-06T19:35:11.359Z,96665.91
2022-10-06T19:37:38.623Z,96664.91
2022-10-06T19:40:05.270Z,96663.94
2022-10-06T19:42:31.899Z,96671.66
2022-10-06T19:44:58.806Z,96666.28
2022-10-06T19:47:26.060Z,96670.47
2022-10-06T19:49:53.997Z,96666.72
2022-10-06T19:52:22.562Z,96670.09
2022-10-06T19:54:49.128Z,96659.00
2022-10-06T19:57:15.834Z,96662.81
2022-10-06T19:59:42.435Z,96650.94
2022-10-06T20:02:10.720Z,96666.00
2022-10-06T20:04:37.849Z,96662.28
2022-10-06T20:07:04.478Z,96664.50
2022-10-06T20:09:32.099Z,96667.06
2022-10-06T20:11:59.410Z,96664.94
2022-10-06T20:14:26.325Z,96667.19
2022-10-06T20:16:54.320Z,96663.13
2022-10-06T20:19:21.459Z,96674.69
2022-10-06T20:21:48.573Z,96671.94
2022-10-06T20:24:18.042Z,96678.84
2022-10-06T20:26:45.642Z,96669.34
2022-10-06T20:29:13.458Z,96665.81
2022-10-06T20:31:43.209Z,96672.38
2022-10-06T20:34:12.527Z,96665.81
2022-10-06T20:36:39.503Z,96671.75
2022-10-06T20:39:07.572Z,96667.41
2022-10-06T20:41:34.123Z,96669.03
2022-10-06T20:44:01.916Z,96667.94
2022-10-06T20:46:31.497Z,96655.38
2022-10-06T20:49:03.763Z,96664.38
2022-10-06T20:51:31.593Z,96664.06
2022-10-06T20:53:59.168Z,96649.94
2022-10-06T20:56:26.088Z,96656.50
2022-10-06T20:58:53.541Z,96655.69
2022-10-06T21:01:21.660Z,96650.53
2022-10-06T21:03:48.991Z,96653.00
2022-10-06T21:06:17.409Z,96653.72
2022-10-06T21:08:45.503Z,96654.81
2022-10-06T21:11:13.494Z,96649.06
2022-10-06T21:13:40.561Z,96647.34
2022-10-06T21:16:07.262Z,96645.25
2022-10-06T21:18:34.102Z,96648.91
2022-10-06T21:21:05.447Z,96649.78
2022-10-06T21:23:38.101Z,96637.06
2022-10-06T21:26:06.413Z,96637.66
2022-10-06T21:28:33.869Z,96634.16
2022-10-06T21:31:05.255Z,96628.94
2022-10-06T21:33:31.944Z,96626.50
2022-10-06T21:36:02.873Z,96627.91
2022-10-06T21:38:30.381Z,96632.34
2022-10-06T21:41:01.829Z,96621.06
2022-10-06T21:43:28.338Z,96622.19
2022-10-06T21:46:17.166Z,96621.69
2022-10-06T21:48:41.265Z,96614.09
2022-10-06T21:51:07.799Z,96614.41
2022-10-06T21:53:34.363Z,96608.16
2022-10-06T21:56:00.858Z,96607.34
2022-10-06T21:58:27.532Z,96609.56
2022-10-06T22:00:58.070Z,96618.84
2022-10-06T22:03:24.755Z,96612.91
2022-10-06T22:05:51.199Z,96609.69
2022-10-06T22:08:17.633Z,96604.53
2022-10-06T22:10:44.196Z,96604.84
2022-10-06T22:13:10.755Z,96598.88
2022-10-06T22:15:37.312Z,96606.53
2022-10-06T22:18:04.019Z,96607.38
2022-10-06T22:20:30.479Z,96601.63
2022-10-06T22:23:00.265Z,96605.63
2022-10-06T22:25:29.077Z,96604.53
2022-10-06T22:27:55.500Z,96601.19
2022-10-06T22:30:21.976Z,96600.59
2022-10-06T22:32:48.449Z,96594.00
2022-10-06T22:35:15.027Z,96585.53
2022-10-06T22:37:41.751Z,96586.03
2022-10-06T22:40:09.452Z,96584.91
2022-10-06T22:42:36.040Z,96579.16
2022-10-06T22:45:02.540Z,96571.78
2022-10-06T22:47:28.977Z,96564.91
2022-10-06T22:49:55.506Z,96571.97
2022-10-06T22:52:21.944Z,96566.22
2022-10-06T22:54:48.472Z,96567.50
2022-10-06T22:57:14.989Z,96569.13
2022-10-06T22:59:41.443Z,96557.91
2022-10-06T23:02:07.940Z,96560.03
2022-10-06T23:04:34.481Z,96558.63
2022-10-06T23:07:00.916Z,96551.72
2022-10-06T23:09:27.625Z,96547.59
2022-10-06T23:11:54.064Z,96553.53
2022-10-06T23:14:20.575Z,96552.13
2022-10-06T23:16:47.355Z,96546.34
2022-10-06T23:19:14.040Z,96540.59
2022-10-06T23:21:40.590Z,96543.81
2022-10-06T23:24:07.223Z,96543.81
2022-10-06T23:26:33.688Z,96548.16
2022-10-06T23:29:01.392Z,96549.75
2022-10-06T23:31:28.920Z,96538.84
2022-10-06T23:33:55.899Z,96540.94
2022-10-06T23:36:22.791Z,96531.66
2022-10-06T23:38:49.312Z,96537.63
2022-10-06T23:41:16.363Z,96538.13
2022-10-06T23:43:43.418Z,96540.22
2022-10-06T23:46:10.399Z,96536.88
2022-10-06T23:48:36.835Z,96529.19
2022-10-06T23:51:12.242Z,96536.78
2022-10-06T23:53:39.436Z,96523.63
2022-10-06T23:56:06.878Z,96527.31
2022-10-06T23:58:33.837Z,96528.63
